Time;durP1;ratioP1;P1;durP2;ratioP2;P2;SDS_P1;SDS_P2;PMS_P1;PMS_P2;Temp;Humidity;BMP_temperature;BMP_pressure;BME280_temperature;BME280_humidity;BME280_pressure;Samples;Min_cycle;Max_cycle;Signal;HPM_P1;HPM_P2
2023/08/26 00:04:44;;;;;;;23.17;10.95;;;;;;;;;;12817296;23;20208;-76
2023/08/26 00:09:44;;;;;;;15.43;10.60;;;;;;;;;;12816291;23;19997;-76
2023/08/26 00:14:46;;;;;;;20.73;11.83;;;;;;;;;;12816647;23;20069;-76
2023/08/26 00:19:46;;;;;;;12.40;9.45;;;;;;;;;;12816424;23;20035;-76
2023/08/26 00:24:47;;;;;;;16.85;9.88;;;;;;;;;;12772243;23;19999;-76
2023/08/26 00:29:47;;;;;;;13.27;9.65;;;;;;;;;;12818883;23;20040;-77
2023/08/26 00:34:48;;;;;;;18.88;10.85;;;;;;;;;;12818756;23;20311;-76
2023/08/26 00:39:48;;;;;;;14.13;11.13;;;;;;;;;;12818901;23;20039;-77
2023/08/26 00:44:48;;;;;;;20.85;11.27;;;;;;;;;;12800447;23;20247;-76
2023/08/26 00:49:49;;;;;;;16.40;10.77;;;;;;;;;;12771106;23;20283;-76
2023/08/26 00:54:49;;;;;;;18.90;11.87;;;;;;;;;;12818363;23;20000;-76
2023/08/26 00:59:49;;;;;;;19.02;11.60;;;;;;;;;;12818418;23;20283;-77
2023/08/26 01:04:49;;;;;;;16.07;11.50;;;;;;;;;;12771631;23;20056;-76
2023/08/26 01:09:50;;;;;;;18.23;12.30;;;;;;;;;;12819109;23;20164;-78
2023/08/26 01:15:06;;;;;;;15.70;10.48;;;;;;;;;;12818622;23;20042;-77
2023/08/26 01:20:08;;;;;;;20.65;11.50;;;;;;;;;;12818427;23;19989;-78
2023/08/26 01:25:08;;;;;;;19.38;12.52;;;;;;;;;;12771393;23;20039;-78
2023/08/26 01:30:10;;;;;;;16.60;10.97;;;;;;;;;;12817838;23;20071;-78
2023/08/26 01:35:12;;;;;;;18.35;11.88;;;;;;;;;;12818342;23;19989;-78
2023/08/26 01:40:13;;;;;;;18.33;11.13;;;;;;;;;;12771718;23;20062;-78
2023/08/26 01:45:14;;;;;;;15.00;11.02;;;;;;;;;;12797551;23;20056;-75
2023/08/26 01:50:14;;;;;;;22.80;11.60;;;;;;;;;;12817085;23;20343;-78
2023/08/26 01:55:14;;;;;;;17.48;11.93;;;;;;;;;;12817689;23;20011;-78
2023/08/26 02:00:15;;;;;;;21.75;11.93;;;;;;;;;;12817412;23;19993;-78
2023/08/26 02:05:16;;;;;;;17.30;12.02;;;;;;;;;;12817989;23;19993;-78
2023/08/26 02:10:16;;;;;;;18.70;12.02;;;;;;;;;;12817500;23;19997;-78
2023/08/26 02:15:16;;;;;;;15.70;11.63;;;;;;;;;;12817550;23;20012;-78
2023/08/26 02:20:16;;;;;;;17.08;11.13;;;;;;;;;;12817873;23;19993;-78
2023/08/26 02:25:17;;;;;;;20.13;11.05;;;;;;;;;;12818011;23;20288;-78
2023/08/26 02:30:17;;;;;;;15.68;11.48;;;;;;;;;;12817255;23;20332;-78
2023/08/26 02:35:17;;;;;;;18.67;10.85;;;;;;;;;;12817748;23;20019;-76
2023/08/26 02:40:18;;;;;;;17.33;11.43;;;;;;;;;;12770526;23;20004;-78
2023/08/26 02:45:18;;;;;;;17.75;11.98;;;;;;;;;;12798340;23;20008;-78
2023/08/26 02:50:18;;;;;;;18.92;12.55;;;;;;;;;;12770271;23;20001;-78
2023/08/26 02:55:19;;;;;;;17.00;11.93;;;;;;;;;;12817130;23;20187;-78
2023/08/26 03:00:19;;;;;;;16.15;12.13;;;;;;;;;;12817191;23;19993;-78
2023/08/26 03:05:19;;;;;;;20.65;12.50;;;;;;;;;;12820331;23;20223;-78
2023/08/26 03:10:19;;;;;;;22.15;13.02;;;;;;;;;;12774060;23;20008;-78
2023/08/26 03:15:20;;;;;;;19.15;12.82;;;;;;;;;;12820692;23;20082;-78
2023/08/26 03:20:20;;;;;;;17.88;12.88;;;;;;;;;;12795027;23;20004;-78
2023/08/26 03:25:21;;;;;;;18.45;12.70;;;;;;;;;;12773650;23;20211;-78
2023/08/26 03:30:21;;;;;;;17.33;12.57;;;;;;;;;;12819834;23;20009;-78
2023/08/26 03:35:22;;;;;;;22.40;12.88;;;;;;;;;;12819533;23;20228;-77
2023/08/26 03:40:22;;;;;;;17.83;13.55;;;;;;;;;;12819512;23;19993;-77
2023/08/26 03:45:23;;;;;;;19.10;12.63;;;;;;;;;;12772982;23;20073;-77
2023/08/26 03:50:23;;;;;;;20.60;13.20;;;;;;;;;;12819513;23;20005;-77
2023/08/26 03:55:24;;;;;;;17.92;12.77;;;;;;;;;;12773853;23;20183;-76
2023/08/26 04:00:24;;;;;;;19.98;13.52;;;;;;;;;;12773010;23;20035;-76
2023/08/26 04:05:24;;;;;;;22.50;13.57;;;;;;;;;;12820880;23;20047;-78
2023/08/26 04:10:24;;;;;;;23.30;12.73;;;;;;;;;;12819192;23;20191;-78
2023/08/26 04:15:25;;;;;;;26.08;14.85;;;;;;;;;;12818744;23;20306;-75
2023/08/26 04:20:25;;;;;;;28.10;14.05;;;;;;;;;;12819465;23;20455;-76
2023/08/26 04:25:26;;;;;;;15.83;10.93;;;;;;;;;;12819170;23;20001;-77
2023/08/26 04:30:26;;;;;;;20.40;12.82;;;;;;;;;;12819155;23;20195;-77
2023/08/26 04:35:27;;;;;;;15.80;10.63;;;;;;;;;;12819039;23;20044;-77
2023/08/26 04:40:27;;;;;;;14.20;10.77;;;;;;;;;;12771828;23;20380;-77
2023/08/26 04:45:27;;;;;;;18.20;10.23;;;;;;;;;;12818438;23;19997;-77
2023/08/26 04:50:28;;;;;;;15.00;10.65;;;;;;;;;;12818898;23;20243;-77
2023/08/26 04:55:28;;;;;;;15.05;9.77;;;;;;;;;;12819659;23;20012;-77
2023/08/26 05:00:29;;;;;;;13.93;10.35;;;;;;;;;;12771685;23;20239;-77
2023/08/26 05:05:29;;;;;;;15.33;9.60;;;;;;;;;;12818603;23;20060;-76
2023/08/26 05:10:29;;;;;;;14.32;9.65;;;;;;;;;;12818833;23;20283;-77
2023/08/26 05:15:29;;;;;;;16.25;9.13;;;;;;;;;;12817722;23;20008;-77
2023/08/26 05:20:30;;;;;;;16.88;10.55;;;;;;;;;;12817828;23;20060;-77
2023/08/26 05:25:30;;;;;;;14.95;9.73;;;;;;;;;;12769951;23;20011;-76
2023/08/26 05:30:31;;;;;;;15.43;10.15;;;;;;;;;;12817260;23;20327;-76
2023/08/26 05:35:31;;;;;;;14.77;10.18;;;;;;;;;;12815504;23;19996;-76
2023/08/26 05:40:32;;;;;;;16.47;9.70;;;;;;;;;;12813848;23;20000;-74
2023/08/26 05:45:34;;;;;;;14.18;9.15;;;;;;;;;;12810992;23;19993;-73
2023/08/26 05:50:35;;;;;;;18.98;9.43;;;;;;;;;;12811927;23;20012;-75
2023/08/26 05:55:35;;;;;;;11.82;8.48;;;;;;;;;;12813771;23;20170;-81
2023/08/26 06:00:35;;;;;;;13.93;9.90;;;;;;;;;;12815459;23;19996;-78
2023/08/26 06:05:36;;;;;;;13.45;9.02;;;;;;;;;;12806489;23;20362;-77
2023/08/26 06:10:36;;;;;;;20.75;10.80;;;;;;;;;;12792918;23;20024;-76
2023/08/26 06:15:37;;;;;;;19.55;9.98;;;;;;;;;;12797257;23;19989;-75
2023/08/26 06:20:37;;;;;;;16.90;9.48;;;;;;;;;;12749349;23;20176;-75
2023/08/26 06:25:37;;;;;;;16.98;9.10;;;;;;;;;;12789589;23;20291;-86
2023/08/26 06:30:37;;;;;;;23.08;8.73;;;;;;;;;;12748882;23;20048;-82
2023/08/26 06:35:38;;;;;;;13.88;7.97;;;;;;;;;;12795130;23;19996;-76
2023/08/26 06:40:38;;;;;;;12.00;7.83;;;;;;;;;;12801244;23;20115;-75
2023/08/26 06:45:39;;;;;;;13.85;7.78;;;;;;;;;;12803534;23;20246;-80
2023/08/26 06:50:40;;;;;;;11.77;7.00;;;;;;;;;;12803168;23;20012;-72
2023/08/26 06:55:40;;;;;;;14.88;6.20;;;;;;;;;;12801850;23;20206;-73
2023/08/26 07:00:41;;;;;;;11.07;6.00;;;;;;;;;;12802796;23;19993;-77
2023/08/26 07:05:42;;;;;;;16.38;6.10;;;;;;;;;;12801225;23;20165;-76
2023/08/26 07:10:44;;;;;;;10.38;6.22;;;;;;;;;;12801649;23;20103;-70
2023/08/26 07:15:44;;;;;;;11.32;5.93;;;;;;;;;;12796851;23;20043;-71
2023/08/26 07:20:45;;;;;;;7.32;5.70;;;;;;;;;;12754028;23;20005;-73
2023/08/26 07:25:45;;;;;;;7.90;5.53;;;;;;;;;;12801061;23;20179;-76
2023/08/26 07:30:45;;;;;;;12.38;5.60;;;;;;;;;;12755478;23;20343;-75
2023/08/26 07:35:46;;;;;;;11.73;5.18;;;;;;;;;;12752372;23;20001;-72
2023/08/26 07:40:46;;;;;;;9.23;4.80;;;;;;;;;;12799022;23;20017;-71
2023/08/26 07:45:47;;;;;;;7.60;4.82;;;;;;;;;;12802024;23;20079;-71
2023/08/26 07:50:47;;;;;;;8.85;5.63;;;;;;;;;;12795765;23;20005;-73
2023/08/26 07:55:47;;;;;;;7.47;5.38;;;;;;;;;;12800918;23;19997;-77
2023/08/26 08:00:47;;;;;;;9.82;5.45;;;;;;;;;;12798871;23;20230;-79
2023/08/26 08:05:48;;;;;;;9.02;4.47;;;;;;;;;;12797457;23;20003;-79
2023/08/26 08:10:49;;;;;;;14.20;5.07;;;;;;;;;;12796860;23;20050;-80
2023/08/26 08:15:50;;;;;;;7.63;3.83;;;;;;;;;;12752894;23;20001;-76
2023/08/26 08:20:50;;;;;;;7.00;4.30;;;;;;;;;;12801833;23;20001;-80
2023/08/26 08:25:50;;;;;;;8.90;4.40;;;;;;;;;;12800782;23;20012;-80
2023/08/26 08:30:51;;;;;;;6.10;4.30;;;;;;;;;;12753249;23;20051;-79
2023/08/26 08:35:51;;;;;;;5.53;4.25;;;;;;;;;;12752730;23;19993;-82
2023/08/26 08:40:52;;;;;;;7.43;3.87;;;;;;;;;;12798117;23;20000;-81
2023/08/26 08:45:52;;;;;;;13.37;4.30;;;;;;;;;;12800062;23;20008;-76
2023/08/26 08:50:53;;;;;;;5.67;4.43;;;;;;;;;;12799778;23;19999;-79
2023/08/26 08:55:53;;;;;;;6.43;4.78;;;;;;;;;;12757314;23;20009;-81
2023/08/26 09:00:54;;;;;;;6.50;3.87;;;;;;;;;;12808819;23;20091;-81
2023/08/26 09:05:54;;;;;;;8.35;4.28;;;;;;;;;;12809928;23;19993;-84
2023/08/26 09:10:55;;;;;;;7.47;3.80;;;;;;;;;;12806176;23;20001;-86
2023/08/26 09:15:55;;;;;;;6.00;4.40;;;;;;;;;;12808204;23;19993;-85
2023/08/26 09:20:56;;;;;;;5.13;4.40;;;;;;;;;;12807096;23;20039;-72
2023/08/26 09:25:56;;;;;;;5.72;4.88;;;;;;;;;;12805754;23;19993;-72
2023/08/26 09:31:04;;;;;;;8.77;4.60;;;;;;;;;;12805157;23;20161;-73
2023/08/26 09:36:04;;;;;;;9.98;4.45;;;;;;;;;;12805629;23;20306;-73
2023/08/26 09:41:04;;;;;;;6.87;4.50;;;;;;;;;;12801529;23;20081;-74
2023/08/26 09:46:04;;;;;;;5.78;4.75;;;;;;;;;;12804408;23;20294;-73
2023/08/26 09:51:08;;;;;;;9.53;4.77;;;;;;;;;;12805089;23;20305;-73
2023/08/26 09:56:08;;;;;;;8.65;4.53;;;;;;;;;;12805503;23;20303;-71
2023/08/26 10:01:09;;;;;;;4.57;3.72;;;;;;;;;;12804627;23;20003;-73
2023/08/26 10:06:10;;;;;;;4.60;3.20;;;;;;;;;;12805143;23;20012;-72
2023/08/26 10:11:11;;;;;;;10.57;3.60;;;;;;;;;;12805400;23;20296;-72
2023/08/26 10:16:11;;;;;;;5.15;2.90;;;;;;;;;;12809481;23;19985;-73
2023/08/26 10:21:13;;;;;;;9.10;3.00;;;;;;;;;;12809234;23;20000;-74
2023/08/26 10:26:13;;;;;;;4.47;2.63;;;;;;;;;;12808428;23;20001;-73
2023/08/26 10:31:14;;;;;;;6.32;2.97;;;;;;;;;;12808122;23;20231;-74
2023/08/26 10:36:15;;;;;;;9.13;2.90;;;;;;;;;;12808607;23;20072;-73
2023/08/26 10:41:15;;;;;;;6.78;3.42;;;;;;;;;;12805567;23;20015;-73
2023/08/26 10:46:15;;;;;;;5.97;3.15;;;;;;;;;;12809318;23;19988;-73
2023/08/26 10:51:15;;;;;;;8.45;3.03;;;;;;;;;;12809306;23;20057;-73
2023/08/26 10:56:21;;;;;;;9.57;3.10;;;;;;;;;;12809524;23;19993;-74
2023/08/26 11:01:21;;;;;;;4.35;3.13;;;;;;;;;;12808599;23;20044;-73
2023/08/26 11:06:24;;;;;;;8.57;3.60;;;;;;;;;;12809294;23;20183;-72
2023/08/26 11:11:25;;;;;;;9.23;3.60;;;;;;;;;;12808478;23;19989;-73
2023/08/26 11:16:25;;;;;;;5.28;3.72;;;;;;;;;;12807971;23;20088;-72
2023/08/26 11:21:26;;;;;;;6.10;4.13;;;;;;;;;;12809065;23;20065;-73
2023/08/26 11:26:27;;;;;;;5.25;3.97;;;;;;;;;;12808214;23;20016;-73
2023/08/26 11:31:28;;;;;;;7.53;4.72;;;;;;;;;;12808534;23;20012;-73
2023/08/26 11:36:28;;;;;;;8.02;5.40;;;;;;;;;;12808754;23;20287;-73
2023/08/26 11:41:29;;;;;;;10.20;6.10;;;;;;;;;;12803383;23;20048;-73
2023/08/26 11:46:29;;;;;;;6.67;5.23;;;;;;;;;;12808293;23;20020;-73
2023/08/26 11:51:29;;;;;;;9.80;5.15;;;;;;;;;;12808393;23;20228;-73
2023/08/26 11:56:29;;;;;;;6.67;5.33;;;;;;;;;;12808440;23;20326;-73
2023/08/26 12:01:31;;;;;;;9.67;4.70;;;;;;;;;;12760314;23;20002;-73
2023/08/26 12:06:32;;;;;;;12.00;5.32;;;;;;;;;;12807876;23;20215;-74
2023/08/26 12:11:38;;;;;;;5.55;4.90;;;;;;;;;;12807963;23;20192;-74
2023/08/26 12:16:38;;;;;;;8.50;6.10;;;;;;;;;;12807858;23;20001;-74
2023/08/26 12:21:38;;;;;;;6.35;4.80;;;;;;;;;;12806683;23;20290;-74
2023/08/26 12:26:39;;;;;;;4.88;4.32;;;;;;;;;;12807844;23;20001;-74
2023/08/26 12:31:43;;;;;;;7.32;4.80;;;;;;;;;;12806984;23;20215;-74
2023/08/26 12:36:48;;;;;;;10.73;5.18;;;;;;;;;;12807220;23;19997;-74
2023/08/26 12:41:48;;;;;;;14.63;4.97;;;;;;;;;;12801311;23;20287;-74
2023/08/26 12:46:49;;;;;;;5.03;4.35;;;;;;;;;;12807190;23;20008;-73
2023/08/26 12:51:50;;;;;;;6.22;3.90;;;;;;;;;;12807820;23;20215;-73
2023/08/26 12:56:50;;;;;;;8.82;4.28;;;;;;;;;;12807131;23;20059;-73
2023/08/26 13:01:50;;;;;;;6.00;3.40;;;;;;;;;;12806316;23;20149;-72
2023/08/26 13:06:50;;;;;;;5.73;3.50;;;;;;;;;;12805385;23;20302;-72
2023/08/26 13:11:51;;;;;;;6.53;3.20;;;;;;;;;;12806538;23;19989;-72
2023/08/26 13:16:51;;;;;;;7.95;3.53;;;;;;;;;;12806678;23;20299;-72
2023/08/26 13:21:53;;;;;;;3.53;3.17;;;;;;;;;;12759719;23;20008;-71
2023/08/26 13:26:53;;;;;;;6.57;3.05;;;;;;;;;;12806137;23;20005;-78
2023/08/26 13:31:53;;;;;;;5.57;4.03;;;;;;;;;;12803683;23;20048;-77
2023/08/26 13:36:53;;;;;;;6.50;3.57;;;;;;;;;;12803152;23;19993;-72
2023/08/26 13:41:55;;;;;;;6.57;4.40;;;;;;;;;;12797561;23;20258;-73
2023/08/26 13:46:56;;;;;;;6.13;3.70;;;;;;;;;;12806757;23;20314;-73
2023/08/26 13:51:56;;;;;;;5.85;4.50;;;;;;;;;;12805802;23;20023;-74
2023/08/26 13:56:56;;;;;;;7.28;3.78;;;;;;;;;;12805634;23;19989;-77
2023/08/26 14:01:56;;;;;;;10.20;4.28;;;;;;;;;;12805522;23;20001;-74
2023/08/26 14:06:56;;;;;;;9.18;4.32;;;;;;;;;;12805928;23;20223;-70
2023/08/26 14:11:58;;;;;;;6.15;4.80;;;;;;;;;;12805459;23;19997;-69
2023/08/26 14:16:58;;;;;;;8.77;4.57;;;;;;;;;;12805564;23;19989;-74
2023/08/26 14:21:59;;;;;;;16.93;6.63;;;;;;;;;;12805603;23;20001;-70
2023/08/26 14:26:59;;;;;;;19.47;7.23;;;;;;;;;;12803702;23;20172;-78
2023/08/26 14:31:59;;;;;;;16.35;7.10;;;;;;;;;;12805315;23;20292;-76
2023/08/26 14:37:00;;;;;;;19.55;6.90;;;;;;;;;;12803947;23;20017;-76
2023/08/26 14:42:00;;;;;;;9.75;7.15;;;;;;;;;;12757912;23;20196;-76
2023/08/26 14:47:00;;;;;;;9.95;6.72;;;;;;;;;;12800120;23;20000;-76
2023/08/26 14:52:00;;;;;;;8.27;6.60;;;;;;;;;;12797490;23;20067;-76
2023/08/26 14:57:02;;;;;;;10.75;6.50;;;;;;;;;;12798218;23;20044;-76
2023/08/26 15:02:02;;;;;;;10.48;6.13;;;;;;;;;;12805309;23;20028;-76
2023/08/26 15:07:03;;;;;;;10.63;6.90;;;;;;;;;;12809220;23;20219;-75
2023/08/26 15:12:03;;;;;;;13.20;6.63;;;;;;;;;;12809487;23;20048;-75
2023/08/26 15:17:03;;;;;;;12.70;6.50;;;;;;;;;;12809392;23;20018;-76
2023/08/26 15:22:04;;;;;;;8.03;6.07;;;;;;;;;;12808973;23;20008;-75
2023/08/26 15:27:05;;;;;;;10.32;6.55;;;;;;;;;;12761627;23;20005;-75
2023/08/26 15:32:05;;;;;;;13.95;7.25;;;;;;;;;;12809448;23;20008;-75
2023/08/26 15:37:06;;;;;;;10.43;7.17;;;;;;;;;;12761381;23;20267;-75
2023/08/26 15:42:07;;;;;;;9.27;6.47;;;;;;;;;;12801383;23;20203;-74
2023/08/26 15:47:08;;;;;;;8.55;6.50;;;;;;;;;;12788487;23;20084;-74
2023/08/26 15:52:09;;;;;;;9.95;6.93;;;;;;;;;;12808041;23;20072;-74
2023/08/26 15:57:10;;;;;;;13.50;7.22;;;;;;;;;;12808422;23;20109;-75
2023/08/26 16:02:15;;;;;;;11.88;7.55;;;;;;;;;;12808674;23;20005;-75
2023/08/26 16:07:15;;;;;;;10.50;7.53;;;;;;;;;;12807009;23;19997;-75
2023/08/26 16:12:16;;;;;;;14.20;7.63;;;;;;;;;;12806626;23;19997;-75
2023/08/26 16:17:16;;;;;;;14.35;8.02;;;;;;;;;;12807905;23;20001;-75
2023/08/26 16:22:16;;;;;;;18.60;11.85;;;;;;;;;;12807295;23;20064;-74
2023/08/26 16:27:17;;;;;;;13.68;7.95;;;;;;;;;;12807579;23;20005;-75
2023/08/26 16:32:17;;;;;;;13.40;6.75;;;;;;;;;;12808191;23;20494;-76
2023/08/26 16:37:17;;;;;;;11.07;7.80;;;;;;;;;;12760206;23;20287;-76
2023/08/26 16:42:18;;;;;;;11.65;7.63;;;;;;;;;;12799896;23;20044;-76
2023/08/26 16:47:20;;;;;;;16.52;7.20;;;;;;;;;;12807783;23;20196;-75
2023/08/26 16:52:20;;;;;;;14.45;8.23;;;;;;;;;;12760947;23;20063;-75
2023/08/26 16:57:20;;;;;;;12.93;7.80;;;;;;;;;;12807161;23;20183;-75
2023/08/26 17:02:21;;;;;;;11.23;7.72;;;;;;;;;;12806806;23;19997;-76
2023/08/26 17:07:21;;;;;;;10.57;7.05;;;;;;;;;;12806940;23;20003;-75
2023/08/26 17:12:21;;;;;;;10.30;7.50;;;;;;;;;;12804678;23;20008;-76
2023/08/26 17:17:22;;;;;;;15.50;7.90;;;;;;;;;;12806423;23;20000;-75
2023/08/26 17:22:22;;;;;;;23.63;15.52;;;;;;;;;;12807111;23;19997;-77
2023/08/26 17:27:22;;;;;;;18.10;12.43;;;;;;;;;;12805591;23;20234;-74
2023/08/26 17:32:22;;;;;;;14.93;7.50;;;;;;;;;;12760561;23;20169;-77
2023/08/26 17:37:23;;;;;;;14.15;8.65;;;;;;;;;;12806608;23;20278;-75
2023/08/26 17:42:23;;;;;;;14.38;7.88;;;;;;;;;;12798227;23;20001;-75
2023/08/26 17:47:24;;;;;;;14.33;8.47;;;;;;;;;;12806412;23;19996;-76
2023/08/26 17:52:24;;;;;;;12.85;7.40;;;;;;;;;;12806723;23;19996;-75
2023/08/26 17:57:24;;;;;;;15.07;7.85;;;;;;;;;;12805965;23;19997;-75
2023/08/26 18:02:25;;;;;;;8.95;7.28;;;;;;;;;;12805973;23;20008;-75
2023/08/26 18:07:25;;;;;;;10.37;8.17;;;;;;;;;;12806395;23;20053;-75
2023/08/26 18:12:25;;;;;;;9.27;7.20;;;;;;;;;;12806414;23;20239;-75
2023/08/26 18:17:26;;;;;;;11.05;8.10;;;;;;;;;;12805984;23;20052;-76
2023/08/26 18:22:27;;;;;;;14.13;7.63;;;;;;;;;;12806736;23;20019;-75
2023/08/26 18:27:27;;;;;;;10.68;7.60;;;;;;;;;;12806038;23;20020;-76
2023/08/26 18:32:27;;;;;;;14.47;7.57;;;;;;;;;;12805917;23;20080;-76
2023/08/26 18:37:28;;;;;;;18.07;8.13;;;;;;;;;;12810361;23;19993;-76
2023/08/26 18:42:28;;;;;;;10.20;7.15;;;;;;;;;;12800850;23;20013;-76
2023/08/26 18:47:28;;;;;;;13.70;7.93;;;;;;;;;;12809652;23;20451;-76
2023/08/26 18:52:28;;;;;;;10.48;8.05;;;;;;;;;;12809678;23;19992;-75
2023/08/26 18:57:29;;;;;;;11.63;6.82;;;;;;;;;;12809641;23;20024;-74
2023/08/26 19:02:29;;;;;;;11.23;7.32;;;;;;;;;;12808805;23;20068;-75
2023/08/26 19:07:29;;;;;;;11.88;6.53;;;;;;;;;;12809125;23;20205;-75
2023/08/26 19:12:29;;;;;;;13.45;6.65;;;;;;;;;;12809596;23;20005;-75
2023/08/26 19:17:30;;;;;;;9.40;6.35;;;;;;;;;;12808762;23;20001;-75
2023/08/26 19:22:30;;;;;;;9.60;5.93;;;;;;;;;;12808674;23;20285;-74
2023/08/26 19:27:30;;;;;;;11.10;6.35;;;;;;;;;;12809015;23;20005;-74
2023/08/26 19:32:30;;;;;;;11.02;6.82;;;;;;;;;;12809011;23;20288;-74
2023/08/26 19:37:31;;;;;;;10.77;7.67;;;;;;;;;;12808172;23;20051;-83
2023/08/26 19:42:31;;;;;;;11.15;7.60;;;;;;;;;;12799879;23;20009;-76
2023/08/26 19:47:31;;;;;;;15.82;7.85;;;;;;;;;;12761573;23;20064;-76
2023/08/26 19:52:33;;;;;;;13.75;8.77;;;;;;;;;;12809064;23;20031;-79
2023/08/26 19:57:33;;;;;;;11.40;8.32;;;;;;;;;;12809137;23;20299;-76
2023/08/26 20:02:34;;;;;;;15.85;8.38;;;;;;;;;;12809425;23;19997;-77
2023/08/26 20:07:34;;;;;;;14.90;7.78;;;;;;;;;;12807527;23;20056;-73
2023/08/26 20:12:34;;;;;;;11.20;8.68;;;;;;;;;;12760339;23;20004;-74
2023/08/26 20:17:35;;;;;;;15.45;8.25;;;;;;;;;;12807334;23;20071;-74
2023/08/26 20:22:37;;;;;;;9.95;8.23;;;;;;;;;;12760174;23;20016;-72
2023/08/26 20:27:38;;;;;;;15.23;7.75;;;;;;;;;;12808352;23;20149;-72
2023/08/26 20:32:38;;;;;;;11.40;8.32;;;;;;;;;;12807204;23;20073;-76
2023/08/26 20:37:39;;;;;;;11.65;8.25;;;;;;;;;;12807225;23;20005;-77
2023/08/26 20:42:41;;;;;;;11.38;8.30;;;;;;;;;;12759742;23;20562;-72
2023/08/26 20:47:41;;;;;;;12.45;8.43;;;;;;;;;;12760347;23;20059;-73
2023/08/26 20:52:42;;;;;;;13.93;9.43;;;;;;;;;;12756430;23;20005;-70
2023/08/26 20:57:42;;;;;;;13.83;8.60;;;;;;;;;;12757089;23;20020;-75
2023/08/26 21:02:43;;;;;;;14.27;8.40;;;;;;;;;;12756505;23;20299;-76
2023/08/26 21:07:43;;;;;;;15.27;8.70;;;;;;;;;;12806527;23;20227;-79
2023/08/26 21:12:43;;;;;;;13.70;9.27;;;;;;;;;;12763508;23;20252;-79
2023/08/26 21:17:44;;;;;;;22.63;12.00;;;;;;;;;;12761387;23;20286;-77
2023/08/26 21:22:44;;;;;;;10.77;8.23;;;;;;;;;;12807781;23;20015;-80
2023/08/26 21:27:44;;;;;;;12.65;7.75;;;;;;;;;;12807038;23;20203;-75
2023/08/26 21:32:44;;;;;;;11.05;7.07;;;;;;;;;;12806561;23;20004;-72
2023/08/26 21:37:45;;;;;;;11.30;6.70;;;;;;;;;;12806787;23;19984;-70
2023/08/26 21:42:45;;;;;;;11.73;5.78;;;;;;;;;;12797478;23;20299;-81
2023/08/26 21:47:45;;;;;;;10.48;7.18;;;;;;;;;;12812769;23;20016;-79
2023/08/26 21:52:45;;;;;;;15.73;7.53;;;;;;;;;;12808834;23;20032;-77
2023/08/26 21:57:59;;;;;;;18.02;8.30;;;;;;;;;;12806922;23;20020;-73
2023/08/26 22:02:59;;;;;;;19.80;9.95;;;;;;;;;;12806735;23;20009;-76
2023/08/26 22:08:00;;;;;;;9.98;7.18;;;;;;;;;;12806474;23;20024;-76
2023/08/26 22:13:00;;;;;;;12.73;6.10;;;;;;;;;;12809981;23;20075;-76
2023/08/26 22:18:01;;;;;;;12.40;6.00;;;;;;;;;;12811398;23;20001;-76
2023/08/26 22:23:01;;;;;;;9.82;7.10;;;;;;;;;;12762654;23;20272;-76
2023/08/26 22:28:01;;;;;;;9.85;6.18;;;;;;;;;;12809954;23;20008;-75
2023/08/26 22:33:02;;;;;;;6.88;5.22;;;;;;;;;;12810763;23;19989;-75
2023/08/26 22:38:03;;;;;;;8.77;5.88;;;;;;;;;;12809714;23;19996;-75
2023/08/26 22:43:03;;;;;;;9.10;5.83;;;;;;;;;;12799004;23;20021;-75
2023/08/26 22:48:04;;;;;;;14.23;6.50;;;;;;;;;;12809754;23;20289;-75
2023/08/26 22:53:04;;;;;;;8.90;5.63;;;;;;;;;;12766761;23;20431;-71
2023/08/26 22:58:04;;;;;;;7.93;5.55;;;;;;;;;;12821238;23;20072;-71
2023/08/26 23:03:05;;;;;;;12.38;5.82;;;;;;;;;;12822351;23;20012;-71
2023/08/26 23:08:07;;;;;;;15.43;6.20;;;;;;;;;;12821233;23;19989;-71
2023/08/26 23:13:07;;;;;;;11.00;5.93;;;;;;;;;;12821169;23;20020;-71
2023/08/26 23:18:07;;;;;;;7.93;5.55;;;;;;;;;;12820656;23;19987;-71
2023/08/26 23:23:07;;;;;;;11.18;5.47;;;;;;;;;;12820748;23;19981;-71
2023/08/26 23:28:08;;;;;;;53.03;47.28;;;;;;;;;;12773329;23;20231;-71
2023/08/26 23:33:09;;;;;;;9.15;5.65;;;;;;;;;;12820473;23;20184;-71
2023/08/26 23:38:09;;;;;;;9.18;5.25;;;;;;;;;;12820276;23;19985;-71
2023/08/26 23:43:10;;;;;;;7.97;5.77;;;;;;;;;;12809445;23;19997;-71
2023/08/26 23:48:10;;;;;;;8.73;5.60;;;;;;;;;;12820292;23;20281;-71
2023/08/26 23:53:10;;;;;;;12.13;6.07;;;;;;;;;;12820464;23;20029;-71
2023/08/26 23:58:11;;;;;;;13.30;7.97;;;;;;;;;;12820386;23;19993;-71
